createdAt,value
2024-03-04T00:01:13.956Z,4.40
2024-03-04T00:03:41.253Z,4.00
2024-03-04T00:06:08.505Z,4.50
2024-03-04T00:08:35.658Z,4.50
2024-03-04T00:11:03.563Z,4.30
2024-03-04T00:13:32.814Z,4.10
2024-03-04T00:16:01.978Z,3.90
2024-03-04T00:18:29.182Z,3.80
2024-03-04T00:20:56.550Z,3.80
2024-03-04T00:23:23.976Z,3.90
2024-03-04T00:25:52.666Z,4.10
2024-03-04T00:28:20.027Z,4.20
2024-03-04T00:30:47.259Z,4.30
2024-03-04T00:33:14.883Z,4.10
2024-03-04T00:35:44.329Z,3.80
2024-03-04T00:38:12.203Z,3.70
2024-03-04T00:40:39.832Z,3.70
2024-03-04T00:43:07.429Z,3.80
2024-03-04T00:45:34.989Z,3.80
2024-03-04T00:48:02.406Z,3.90
2024-03-04T00:50:31.439Z,4.00
2024-03-04T00:52:59.894Z,4.10
2024-03-04T00:55:27.364Z,4.10
2024-03-04T00:57:54.553Z,4.10
2024-03-04T01:00:21.857Z,4.00
2024-03-04T01:02:49.008Z,3.90
2024-03-04T01:05:16.568Z,3.70
2024-03-04T01:07:44.152Z,3.60
2024-03-04T01:10:14.746Z,3.60
2024-03-04T01:12:42.107Z,3.60
2024-03-04T01:15:09.773Z,5.60
2024-03-04T01:17:37.659Z,3.70
2024-03-04T01:20:05.817Z,3.70
2024-03-04T01:22:33.188Z,3.70
2024-03-04T01:25:01.746Z,3.80
2024-03-04T01:27:28.903Z,4.40
2024-03-04T01:29:56.132Z,3.80
2024-03-04T01:32:25.415Z,3.80
2024-03-04T01:34:52.478Z,3.80
2024-03-04T01:37:19.467Z,4.00
2024-03-04T01:39:50.159Z,3.60
2024-03-04T01:42:18.454Z,3.60
2024-03-04T01:44:45.478Z,3.60
2024-03-04T01:47:18.987Z,3.60
2024-03-04T01:49:46.804Z,3.60
2024-03-04T01:52:16.030Z,3.50
2024-03-04T01:54:46.152Z,3.60
2024-03-04T01:57:16.894Z,3.60
2024-03-04T01:59:48.211Z,3.60
2024-03-04T02:02:17.334Z,3.60
2024-03-04T02:04:46.125Z,3.50
2024-03-04T02:07:15.524Z,3.40
2024-03-04T02:09:44.899Z,3.30
2024-03-04T02:12:12.112Z,3.20
2024-03-04T02:14:39.631Z,3.20
2024-03-04T02:17:08.966Z,3.20
2024-03-04T02:19:36.225Z,3.30
2024-03-04T02:22:08.073Z,3.40
2024-03-04T02:24:35.364Z,3.30
2024-03-04T02:27:02.748Z,3.30
2024-03-04T02:29:29.754Z,3.20
2024-03-04T02:31:58.030Z,3.10
2024-03-04T02:34:25.179Z,3.00
2024-03-04T02:36:52.849Z,2.60
2024-03-04T02:39:28.730Z,2.40
2024-03-04T02:41:56.105Z,3.20
2024-03-04T02:44:23.436Z,2.30
2024-03-04T02:46:53.093Z,2.40
2024-03-04T02:49:20.278Z,2.40
2024-03-04T02:51:47.549Z,2.50
2024-03-04T02:54:14.659Z,2.60
2024-03-04T02:56:41.757Z,2.70
2024-03-04T02:59:08.798Z,2.70
2024-03-04T03:01:36.009Z,2.70
2024-03-04T03:04:03.133Z,2.90
2024-03-04T03:06:30.154Z,4.90
2024-03-04T03:08:57.489Z,3.20
2024-03-04T03:11:24.721Z,2.90
2024-03-04T03:13:52.471Z,2.60
2024-03-04T03:16:23.521Z,2.60
2024-03-04T03:18:52.339Z,3.00
2024-03-04T03:21:20.006Z,2.70
2024-03-04T03:23:47.884Z,2.50
2024-03-04T03:26:15.827Z,2.60
2024-03-04T03:28:43.817Z,2.70
2024-03-04T03:31:11.884Z,2.90
2024-03-04T03:33:39.323Z,3.10
2024-03-04T03:36:07.812Z,3.00
2024-03-04T03:38:35.160Z,2.60
2024-03-04T03:41:04.502Z,2.60
2024-03-04T03:43:31.773Z,2.40
2024-03-04T03:45:59.535Z,2.10
2024-03-04T03:48:27.609Z,2.40
2024-03-04T03:50:55.000Z,2.20
2024-03-04T03:53:27.394Z,2.30
2024-03-04T03:55:54.516Z,2.20
2024-03-04T03:58:21.842Z,2.20
2024-03-04T04:00:49.206Z,2.00
2024-03-04T04:03:16.475Z,1.90
2024-03-04T04:05:44.033Z,1.80
2024-03-04T04:08:11.517Z,1.70
2024-03-04T04:10:38.730Z,2.00
2024-03-04T04:13:06.452Z,2.30
2024-03-04T04:15:33.761Z,2.40
2024-03-04T04:18:01.105Z,2.60
2024-03-04T04:20:28.989Z,2.70
2024-03-04T04:22:56.482Z,3.30
2024-03-04T04:25:23.813Z,3.80
2024-03-04T04:27:51.877Z,3.90
2024-03-04T04:30:19.232Z,4.30
2024-03-04T04:32:47.720Z,4.70
2024-03-04T04:35:15.358Z,4.90
2024-03-04T04:37:44.273Z,4.90
2024-03-04T04:40:23.097Z,4.90
2024-03-04T04:42:50.228Z,4.90
2024-03-04T04:45:18.908Z,4.90
2024-03-04T04:47:46.896Z,4.90
2024-03-04T04:50:14.219Z,4.90
2024-03-04T04:52:43.050Z,5.00
2024-03-04T04:55:11.330Z,4.80
2024-03-04T04:57:39.579Z,5.20
2024-03-04T05:00:08.460Z,5.20
2024-03-04T05:02:36.447Z,5.20
2024-03-04T05:05:04.130Z,5.10
2024-03-04T05:07:31.354Z,5.20
2024-03-04T05:09:59.353Z,5.30
2024-03-04T05:12:26.864Z,5.30
2024-03-04T05:14:54.105Z,5.30
2024-03-04T05:17:21.955Z,5.30
2024-03-04T05:19:49.432Z,5.20
2024-03-04T05:22:17.454Z,5.20
2024-03-04T05:24:45.953Z,5.20
2024-03-04T05:27:13.406Z,5.60
2024-03-04T05:29:41.014Z,5.30
2024-03-04T05:32:09.064Z,5.30
2024-03-04T05:34:36.220Z,5.30
2024-03-04T05:37:03.511Z,5.40
2024-03-04T05:39:35.222Z,5.50
2024-03-04T05:42:02.161Z,5.50
2024-03-04T05:44:29.287Z,5.50
2024-03-04T05:46:56.578Z,5.40
2024-03-04T05:49:24.530Z,6.10
2024-03-04T05:51:53.529Z,5.30
2024-03-04T05:54:20.785Z,5.30
2024-03-04T05:56:48.038Z,5.40
2024-03-04T05:59:15.383Z,5.60
2024-03-04T06:01:44.071Z,5.50
2024-03-04T06:04:12.786Z,5.50
2024-03-04T06:06:42.631Z,5.60
2024-03-04T06:09:10.088Z,5.70
2024-03-04T06:11:37.546Z,5.60
2024-03-04T06:14:04.798Z,5.60
2024-03-04T06:16:32.062Z,5.60
2024-03-04T06:18:59.261Z,5.60
2024-03-04T06:21:28.975Z,5.50
2024-03-04T06:23:56.157Z,5.60
2024-03-04T06:26:23.269Z,5.50
2024-03-04T06:28:50.694Z,5.60
2024-03-04T06:31:18.501Z,5.60
2024-03-04T06:33:52.751Z,5.60
2024-03-04T06:36:22.266Z,5.60
2024-03-04T06:38:50.490Z,5.60
2024-03-04T06:41:18.661Z,5.50
2024-03-04T06:43:46.394Z,5.50
2024-03-04T06:46:13.963Z,5.60
2024-03-04T06:48:41.315Z,7.80
2024-03-04T06:51:08.754Z,5.70
2024-03-04T06:53:35.933Z,5.60
2024-03-04T06:56:05.432Z,5.70
2024-03-04T06:58:32.691Z,5.70
2024-03-04T07:01:00.032Z,5.80
2024-03-04T07:03:27.272Z,5.90
2024-03-04T07:05:54.640Z,5.90
2024-03-04T07:08:22.213Z,6.00
2024-03-04T07:10:49.893Z,6.20
2024-03-04T07:13:17.107Z,6.20
2024-03-04T07:15:44.469Z,6.20
2024-03-04T07:18:12.975Z,6.10
2024-03-04T07:20:40.603Z,6.10
2024-03-04T07:23:09.653Z,6.00
2024-03-04T07:25:36.924Z,6.10
2024-03-04T07:28:05.467Z,6.10
2024-03-04T07:30:32.773Z,6.10
2024-03-04T07:33:00.595Z,6.20
2024-03-04T07:35:29.756Z,6.20
2024-03-04T07:37:56.997Z,6.20
2024-03-04T07:40:25.481Z,6.20
2024-03-04T07:42:53.032Z,6.30
2024-03-04T07:45:20.502Z,6.30
2024-03-04T07:47:47.768Z,6.40
2024-03-04T07:50:15.198Z,6.50
2024-03-04T07:52:44.165Z,6.60
2024-03-04T07:55:13.674Z,6.50
2024-03-04T07:57:46.794Z,6.60
2024-03-04T08:00:14.844Z,6.60
2024-03-04T08:02:43.533Z,6.80
2024-03-04T08:05:11.606Z,6.90
2024-03-04T08:07:39.968Z,6.80
2024-03-04T08:10:09.848Z,6.80
2024-03-04T08:12:37.349Z,6.90
2024-03-04T08:15:05.137Z,7.00
2024-03-04T08:17:34.192Z,6.90
2024-03-04T08:20:11.614Z,6.80
2024-03-04T08:22:44.480Z,6.80
2024-03-04T08:25:11.885Z,6.90
2024-03-04T08:27:40.514Z,7.00
2024-03-04T08:30:08.376Z,7.00
2024-03-04T08:32:36.251Z,7.00
2024-03-04T08:35:05.028Z,7.00
2024-03-04T08:37:32.548Z,7.00
2024-03-04T08:40:04.181Z,7.20
2024-03-04T08:42:31.813Z,7.20
2024-03-04T08:45:00.387Z,7.20
2024-03-04T08:47:27.461Z,7.30
2024-03-04T08:49:55.497Z,7.40
2024-03-04T08:52:22.562Z,7.50
2024-03-04T08:54:50.932Z,7.50
2024-03-04T08:57:17.996Z,7.50
2024-03-04T08:59:45.239Z,7.50
2024-03-04T09:02:12.512Z,7.40
2024-03-04T09:04:39.623Z,7.50
2024-03-04T09:07:06.889Z,7.50
2024-03-04T09:09:35.982Z,7.50
2024-03-04T09:12:05.139Z,7.50
2024-03-04T09:14:32.529Z,7.50
2024-03-04T09:16:59.979Z,7.40
2024-03-04T09:19:28.078Z,7.40
2024-03-04T09:21:56.226Z,8.20
2024-03-04T09:24:23.572Z,7.60
2024-03-04T09:26:50.741Z,7.50
2024-03-04T09:29:17.984Z,7.50
2024-03-04T09:31:45.695Z,7.40
2024-03-04T09:34:13.302Z,7.40
2024-03-04T09:36:40.448Z,7.50
2024-03-04T09:39:12.021Z,7.50
2024-03-04T09:41:42.130Z,7.60
2024-03-04T09:44:09.673Z,7.60
2024-03-04T09:46:39.294Z,7.70
2024-03-04T09:49:09.477Z,7.70
2024-03-04T09:51:38.924Z,7.70
2024-03-04T09:54:07.388Z,7.70
2024-03-04T09:56:34.658Z,7.70
2024-03-04T09:59:02.861Z,7.50
2024-03-04T10:01:31.150Z,7.80
2024-03-04T10:04:00.193Z,9.30
2024-03-04T10:06:28.044Z,7.80
2024-03-04T10:08:55.434Z,7.70
2024-03-04T10:11:22.646Z,7.70
2024-03-04T10:13:51.703Z,7.60
2024-03-04T10:16:21.782Z,7.60
2024-03-04T10:19:02.722Z,7.60
2024-03-04T10:21:34.080Z,7.50
2024-03-04T10:24:09.285Z,7.60
2024-03-04T10:26:43.805Z,7.60
2024-03-04T10:29:13.781Z,7.60
2024-03-04T10:31:54.360Z,7.50
2024-03-04T10:34:22.444Z,7.60
2024-03-04T10:36:51.141Z,7.50
2024-03-04T10:39:18.654Z,7.60
2024-03-04T10:41:48.920Z,7.60
2024-03-04T10:44:28.611Z,7.70
2024-03-04T10:46:59.623Z,7.70
2024-03-04T10:49:30.593Z,7.70
2024-03-04T10:52:07.664Z,7.70
2024-03-04T10:54:44.521Z,7.70
2024-03-04T10:57:27.847Z,7.70
2024-03-04T10:59:58.050Z,9.00
2024-03-04T11:03:01.261Z,7.20
2024-03-04T11:05:33.207Z,7.80
2024-03-04T11:08:08.851Z,8.20
2024-03-04T11:10:43.125Z,7.70
2024-03-04T11:13:40.699Z,7.70
2024-03-04T11:16:56.447Z,7.70
2024-03-04T11:19:38.813Z,7.80
2024-03-04T11:22:07.780Z,7.80
2024-03-04T11:24:39.630Z,7.80
2024-03-04T11:27:07.993Z,7.70
2024-03-04T11:29:36.984Z,7.70
2024-03-04T11:32:10.224Z,7.80
2024-03-04T11:34:56.902Z,7.80
2024-03-04T11:37:31.933Z,7.70
2024-03-04T11:40:04.195Z,7.80
2024-03-04T11:42:40.029Z,7.90
2024-03-04T11:45:15.640Z,7.60
2024-03-04T11:47:42.698Z,7.90
2024-03-04T11:50:42.483Z,8.00
2024-03-04T11:53:27.539Z,7.90
2024-03-04T11:55:55.919Z,8.00
2024-03-04T11:58:24.511Z,7.80
2024-03-04T12:00:58.626Z,7.80
2024-03-04T12:03:32.302Z,7.80
2024-03-04T12:06:00.775Z,7.90
2024-03-04T12:08:44.824Z,7.80
2024-03-04T12:11:17.435Z,7.80
2024-03-04T12:13:45.323Z,9.60
2024-03-04T12:16:14.831Z,7.90
2024-03-04T12:18:43.377Z,7.90
2024-03-04T12:21:11.310Z,8.00
2024-03-04T12:23:38.361Z,8.00
2024-03-04T12:26:16.029Z,8.10
2024-03-04T12:28:43.351Z,8.20
2024-03-04T12:31:14.245Z,9.30
2024-03-04T12:33:42.431Z,8.30
2024-03-04T12:36:10.716Z,8.40
2024-03-04T12:38:38.876Z,8.40
2024-03-04T12:41:17.124Z,8.50
2024-03-04T12:43:44.879Z,8.50
2024-03-04T12:46:12.148Z,8.50
2024-03-04T12:48:40.387Z,8.50
2024-03-04T12:51:07.736Z,8.40
2024-03-04T12:53:36.401Z,8.40
2024-03-04T12:56:05.767Z,8.40
2024-03-04T12:58:33.128Z,8.40
2024-03-04T13:01:10.610Z,8.50
2024-03-04T13:03:37.902Z,8.40
2024-03-04T13:06:05.913Z,8.40
2024-03-04T13:08:33.164Z,8.30
2024-03-04T13:11:05.593Z,8.30
2024-03-04T13:13:32.655Z,8.20
2024-03-04T13:16:02.757Z,8.30
2024-03-04T13:18:32.713Z,8.40
2024-03-04T13:21:02.811Z,8.40
2024-03-04T13:23:30.156Z,8.40
2024-03-04T13:25:57.764Z,9.10
2024-03-04T13:28:24.980Z,8.30
2024-03-04T13:30:52.400Z,8.40
2024-03-04T13:33:19.919Z,8.50
2024-03-04T13:35:48.743Z,8.50
2024-03-04T13:38:16.222Z,8.60
2024-03-04T13:40:43.406Z,8.50
2024-03-04T13:43:15.995Z,8.60
2024-03-04T13:45:47.188Z,8.50
2024-03-04T13:48:14.485Z,8.50
2024-03-04T13:50:46.705Z,8.50
2024-03-04T13:53:13.970Z,8.60
2024-03-04T13:55:41.971Z,8.60
2024-03-04T13:58:09.169Z,8.60
2024-03-04T14:00:37.815Z,8.60
2024-03-04T14:03:05.869Z,8.60
2024-03-04T14:05:34.513Z,8.60
2024-03-04T14:08:03.567Z,8.70
2024-03-04T14:10:31.461Z,8.70
2024-03-04T14:13:00.682Z,8.70
2024-03-04T14:15:27.830Z,8.60
2024-03-04T14:17:55.340Z,8.60
2024-03-04T14:20:26.075Z,8.50
2024-03-04T14:22:53.199Z,8.60
2024-03-04T14:25:21.090Z,8.60
2024-03-04T14:27:48.640Z,8.50
2024-03-04T14:30:15.870Z,8.50
2024-03-04T14:32:43.832Z,8.60
2024-03-04T14:35:11.061Z,8.60
2024-03-04T14:37:38.859Z,8.50
2024-03-04T14:40:07.036Z,8.50
2024-03-04T14:42:34.595Z,8.50
2024-03-04T14:45:01.822Z,8.50
2024-03-04T14:47:33.263Z,8.50
2024-03-04T14:50:02.216Z,8.40
2024-03-04T14:52:29.556Z,8.40
2024-03-04T14:54:59.714Z,8.70
2024-03-04T14:57:27.069Z,8.40
2024-03-04T14:59:57.486Z,9.80
2024-03-04T15:02:25.972Z,8.40
2024-03-04T15:04:53.228Z,8.50
2024-03-04T15:07:21.002Z,8.50
2024-03-04T15:09:48.143Z,8.60
2024-03-04T15:12:15.390Z,8.60
2024-03-04T15:14:44.395Z,8.60
2024-03-04T15:17:12.574Z,8.50
2024-03-04T15:19:39.869Z,8.60
2024-03-04T15:22:08.222Z,8.60
2024-03-04T15:24:37.077Z,8.60
2024-03-04T15:27:06.375Z,8.60
2024-03-04T15:29:33.536Z,8.60
2024-03-04T15:32:03.377Z,8.60
2024-03-04T15:34:30.729Z,8.60
2024-03-04T15:36:58.640Z,8.60
2024-03-04T15:39:26.210Z,8.60
2024-03-04T15:41:54.490Z,8.60
2024-03-04T15:44:21.738Z,8.50
2024-03-04T15:46:50.388Z,8.50
2024-03-04T15:49:19.037Z,8.50
2024-03-04T15:51:49.389Z,8.40
2024-03-04T15:54:17.494Z,8.90
2024-03-04T15:56:45.117Z,8.30
2024-03-04T15:59:13.591Z,8.30
2024-03-04T16:01:41.387Z,8.30
2024-03-04T16:04:09.216Z,8.30
2024-03-04T16:06:36.284Z,8.30
2024-03-04T16:09:16.293Z,8.20
2024-03-04T16:11:45.883Z,8.30
2024-03-04T16:14:12.913Z,8.20
2024-03-04T16:16:40.226Z,8.30
2024-03-04T16:19:07.267Z,8.20
2024-03-04T16:21:34.719Z,9.30
2024-03-04T16:24:01.993Z,8.10
2024-03-04T16:26:29.085Z,8.10
2024-03-04T16:28:56.051Z,8.10
2024-03-04T16:31:23.075Z,8.10
2024-03-04T16:33:50.414Z,8.10
2024-03-04T16:36:17.670Z,8.10
2024-03-04T16:38:45.004Z,8.10
2024-03-04T16:41:24.777Z,8.00
2024-03-04T16:43:52.089Z,8.00
2024-03-04T16:46:19.775Z,8.00
2024-03-04T16:48:48.513Z,7.90
2024-03-04T16:51:16.772Z,7.90
2024-03-04T16:53:44.187Z,7.90
2024-03-04T16:56:11.528Z,7.90
2024-03-04T16:58:38.850Z,7.90
2024-03-04T17:01:09.276Z,7.80
2024-03-04T17:03:38.144Z,7.80
2024-03-04T17:06:05.481Z,7.80
2024-03-04T17:08:32.922Z,7.70
2024-03-04T17:11:04.665Z,7.70
2024-03-04T17:13:31.823Z,7.80
2024-03-04T17:15:59.166Z,7.80
2024-03-04T17:18:26.625Z,7.80
2024-03-04T17:20:54.008Z,9.30
2024-03-04T17:23:21.437Z,7.80
2024-03-04T17:25:49.273Z,7.80
2024-03-04T17:28:18.510Z,7.80
2024-03-04T17:30:45.773Z,7.80
2024-03-04T17:33:14.595Z,7.70
2024-03-04T17:35:42.307Z,7.70
2024-03-04T17:38:09.557Z,7.70
2024-03-04T17:40:37.313Z,7.70
2024-03-04T17:43:04.685Z,8.50
2024-03-04T17:45:31.734Z,7.70
2024-03-04T17:47:58.681Z,7.70
2024-03-04T17:50:29.939Z,7.70
2024-03-04T17:52:56.988Z,7.70
2024-03-04T17:55:25.371Z,7.70
2024-03-04T17:57:52.920Z,7.60
2024-03-04T18:00:21.382Z,7.60
2024-03-04T18:02:50.071Z,7.60
2024-03-04T18:05:17.676Z,7.60
2024-03-04T18:07:45.062Z,7.60
2024-03-04T18:10:12.485Z,7.50
2024-03-04T18:12:42.744Z,7.50
2024-03-04T18:15:10.027Z,7.50
2024-03-04T18:17:37.346Z,7.40
2024-03-04T18:20:04.888Z,7.30
2024-03-04T18:22:31.875Z,7.40
2024-03-04T18:24:58.920Z,7.40
2024-03-04T18:27:27.286Z,7.30
2024-03-04T18:29:54.404Z,9.10
2024-03-04T18:32:21.596Z,7.20
2024-03-04T18:34:48.967Z,8.60
2024-03-04T18:37:16.156Z,9.00
2024-03-04T18:39:43.262Z,7.20
2024-03-04T18:42:10.860Z,7.20
2024-03-04T18:44:38.077Z,7.20
2024-03-04T18:47:05.136Z,7.20
2024-03-04T18:49:32.647Z,7.20
2024-03-04T18:51:59.685Z,7.20
2024-03-04T18:54:26.971Z,9.30
2024-03-04T18:56:55.483Z,7.20
2024-03-04T18:59:22.671Z,7.10
2024-03-04T19:01:49.800Z,7.10
2024-03-04T19:04:17.817Z,7.00
2024-03-04T19:06:45.261Z,7.00
2024-03-04T19:09:12.568Z,7.00
2024-03-04T19:11:39.636Z,7.00
2024-03-04T19:14:06.727Z,7.00
2024-03-04T19:16:33.850Z,7.00
2024-03-04T19:19:01.118Z,7.00
2024-03-04T19:21:28.962Z,8.50
2024-03-04T19:23:56.004Z,7.00
2024-03-04T19:26:23.307Z,6.90
2024-03-04T19:28:51.537Z,6.90
2024-03-04T19:31:23.392Z,6.60
2024-03-04T19:33:54.232Z,6.90
2024-03-04T19:36:22.707Z,6.90
2024-03-04T19:38:50.076Z,6.90
2024-03-04T19:41:18.695Z,6.90
2024-03-04T19:43:47.073Z,6.90
2024-03-04T19:46:21.536Z,7.00
2024-03-04T19:48:52.283Z,6.90
2024-03-04T19:51:24.305Z,6.90
2024-03-04T19:53:55.118Z,6.90
2024-03-04T19:56:22.817Z,6.80
2024-03-04T19:58:50.143Z,6.80
2024-03-04T20:01:17.885Z,6.80
2024-03-04T20:03:45.349Z,6.80
2024-03-04T20:06:12.904Z,6.80
2024-03-04T20:08:42.142Z,6.80
2024-03-04T20:11:13.611Z,6.70
2024-03-04T20:13:45.972Z,6.70
2024-03-04T20:16:16.980Z,6.70
2024-03-04T20:18:44.511Z,6.70
2024-03-04T20:21:12.839Z,6.70
2024-03-04T20:23:42.457Z,6.30
2024-03-04T20:26:09.993Z,6.70
2024-03-04T20:28:38.893Z,6.80
2024-03-04T20:31:06.889Z,7.70
2024-03-04T20:33:35.953Z,6.80
2024-03-04T20:36:05.726Z,6.90
2024-03-04T20:38:35.327Z,6.90
2024-03-04T20:41:03.144Z,6.90
2024-03-04T20:43:30.332Z,6.80
2024-03-04T20:45:57.967Z,6.80
2024-03-04T20:48:29.146Z,6.80
2024-03-04T20:50:57.295Z,6.80
2024-03-04T20:53:24.786Z,6.80
2024-03-04T20:55:52.073Z,7.90
2024-03-04T20:58:23.221Z,6.60
2024-03-04T21:00:50.824Z,6.60
2024-03-04T21:03:18.106Z,6.60
2024-03-04T21:05:46.482Z,6.60
2024-03-04T21:08:13.737Z,6.60
2024-03-04T21:10:41.700Z,6.60
2024-03-04T21:13:09.825Z,6.60
2024-03-04T21:15:37.236Z,6.60
2024-03-04T21:18:04.601Z,6.50
2024-03-04T21:20:31.740Z,6.60
2024-03-04T21:23:04.237Z,6.60
2024-03-04T21:25:31.501Z,6.60
2024-03-04T21:27:58.884Z,6.60
2024-03-04T21:30:27.777Z,6.60
2024-03-04T21:32:55.259Z,6.60
2024-03-04T21:35:24.869Z,6.50
2024-03-04T21:37:52.019Z,6.50
2024-03-04T21:40:19.865Z,6.40
2024-03-04T21:42:46.998Z,6.60
2024-03-04T21:45:14.172Z,6.30
2024-03-04T21:47:44.039Z,6.30
2024-03-04T21:50:17.974Z,6.40
2024-03-04T21:52:45.398Z,6.40
2024-03-04T21:55:14.544Z,6.50
2024-03-04T21:57:42.586Z,6.50
2024-03-04T22:00:16.181Z,6.40
2024-03-04T22:02:44.669Z,6.40
2024-03-04T22:05:12.752Z,6.40
2024-03-04T22:07:41.322Z,6.40
2024-03-04T22:10:12.738Z,6.40
2024-03-04T22:12:40.855Z,6.40
2024-03-04T22:15:09.831Z,6.70
2024-03-04T22:17:37.285Z,6.40
2024-03-04T22:20:08.120Z,6.40
2024-03-04T22:22:36.178Z,6.40
2024-03-04T22:25:05.494Z,6.40
2024-03-04T22:27:32.522Z,6.40
2024-03-04T22:29:59.835Z,6.40
2024-03-04T22:32:28.669Z,8.10
2024-03-04T22:34:56.105Z,6.30
2024-03-04T22:37:23.903Z,6.30
2024-03-04T22:39:51.075Z,6.30
2024-03-04T22:42:20.221Z,6.40
2024-03-04T22:44:47.479Z,6.40
2024-03-04T22:47:14.731Z,6.30
2024-03-04T22:49:41.981Z,6.30
2024-03-04T22:52:10.285Z,6.30
2024-03-04T22:54:37.350Z,6.30
2024-03-04T22:57:04.593Z,6.30
2024-03-04T22:59:31.641Z,6.30
2024-03-04T23:01:58.996Z,6.30
2024-03-04T23:04:26.291Z,6.40
2024-03-04T23:06:53.673Z,6.40
2024-03-04T23:09:28.189Z,6.40
2024-03-04T23:11:55.291Z,6.40
2024-03-04T23:14:22.753Z,6.30
2024-03-04T23:16:49.886Z,6.20
2024-03-04T23:19:18.385Z,6.20
2024-03-04T23:21:48.275Z,6.20
2024-03-04T23:24:16.041Z,6.20
2024-03-04T23:26:45.824Z,6.30
2024-03-04T23:29:12.995Z,6.30
2024-03-04T23:31:40.339Z,6.30
2024-03-04T23:34:11.818Z,6.30
2024-03-04T23:36:39.163Z,6.30
2024-03-04T23:39:07.119Z,6.40
2024-03-04T23:41:34.588Z,6.40
2024-03-04T23:44:02.013Z,6.00
2024-03-04T23:46:29.254Z,6.40
2024-03-04T23:48:56.431Z,6.40
2024-03-04T23:51:23.575Z,6.40
2024-03-04T23:53:50.793Z,6.40
2024-03-04T23:56:17.804Z,6.40
2024-03-04T23:58:45.020Z,6.30
